Time;durP1;ratioP1;P1;durP2;ratioP2;P2;SDS_P1;SDS_P2;PMS_P1;PMS_P2;Temp;Humidity;BMP_temperature;BMP_pressure;BME280_temperature;BME280_humidity;BME280_pressure;Samples;Min_cycle;Max_cycle;Signal;HPM_P1;HPM_P2
2023/12/02 00:01:27;;;;;;;;;;;;;;;-128.00;-1.00;-1.00;100313;1282;1003824;-33
2023/12/02 00:03:53;;;;;;;56.60;19.50;;;;;;;-128.00;-1.00;-1.00;100317;1284;1003418;-33
2023/12/02 00:06:19;;;;;;;51.70;21.50;;;;;;;-128.00;-1.00;-1.00;100372;1282;1059654;-31
2023/12/02 00:08:45;;;;;;;51.10;20.70;;;;;;;-128.00;-1.00;-1.00;100508;1282;1003374;-32
2023/12/02 00:11:11;;;;;;;49.90;19.80;;;;;;;-128.00;-1.00;-1.00;100430;1284;1003049;-33
2023/12/02 00:13:37;;;;;;;63.60;21.40;;;;;;;-128.00;-1.00;-1.00;100304;1282;1003426;-30
2023/12/02 00:16:04;;;;;;;57.50;21.50;;;;;;;-128.00;-1.00;-1.00;100308;1282;1046136;-32
2023/12/02 00:18:30;;;;;;;60.00;21.90;;;;;;;-128.00;-1.00;-1.00;100460;1284;1003074;-33
2023/12/02 00:20:55;;;;;;;62.00;22.80;;;;;;;-128.00;-1.00;-1.00;100360;1282;1003474;-31
2023/12/02 00:23:22;;;;;;;57.40;20.40;;;;;;;-128.00;-1.00;-1.00;100312;1282;1003620;-33
2023/12/02 00:25:48;;;;;;;61.20;21.00;;;;;;;-128.00;-1.00;-1.00;100188;1287;1038236;-33
2023/12/02 00:28:13;;;;;;;46.50;17.60;;;;;;;-128.00;-1.00;-1.00;100133;1282;1002794;-33
2023/12/02 00:30:39;;;;;;;54.00;20.10;;;;;;;-128.00;-1.00;-1.00;100318;1282;1003257;-33
2023/12/02 00:33:05;;;;;;;;;;;;;;;-128.00;-1.00;-1.00;100280;1284;1056816;-36
2023/12/02 00:35:31;;;;;;;55.40;19.00;;;;;;;-128.00;-1.00;-1.00;100289;1282;1002922;-32
2023/12/02 00:37:57;;;;;;;54.10;19.50;;;;;;;-128.00;-1.00;-1.00;100379;1284;1003176;-33
2023/12/02 00:40:23;;;;;;;51.20;20.60;;;;;;;-128.00;-1.00;-1.00;100372;1282;1059185;-32
2023/12/02 00:42:50;;;;;;;51.30;20.50;;;;;;;-128.00;-1.00;-1.00;100354;1282;1002944;-31
2023/12/02 00:45:15;;;;;;;49.90;18.50;;;;;;;-128.00;-1.00;-1.00;100320;1284;1005030;-33
2023/12/02 00:47:42;;;;;;;;;;;;;;;-128.00;-1.00;-1.00;100461;1282;1003835;-31
2023/12/02 00:50:08;;;;;;;59.10;21.20;;;;;;;-128.00;-1.00;-1.00;100357;1285;1003407;-32
2023/12/02 00:52:33;;;;;;;;;;;;;;;-128.00;-1.00;-1.00;100483;1284;1058841;-34
2023/12/02 00:54:59;;;;;;;53.80;20.90;;;;;;;-128.00;-1.00;-1.00;100331;1282;1003381;-35
2023/12/02 00:57:25;;;;;;;60.70;21.50;;;;;;;-128.00;-1.00;-1.00;100446;1281;1003239;-32
2023/12/02 00:59:51;;;;;;;62.10;24.10;;;;;;;-128.00;-1.00;-1.00;100273;1282;1038808;-31
2023/12/02 01:02:17;;;;;;;;;;;;;;;-128.00;-1.00;-1.00;100379;1282;1003955;-32
2023/12/02 01:04:42;;;;;;;57.30;20.60;;;;;;;-128.00;-1.00;-1.00;100347;1285;1003528;-31
2023/12/02 01:07:08;;;;;;;62.70;23.00;;;;;;;-128.00;-1.00;-1.00;100559;1282;1004150;-33
2023/12/02 01:09:34;;;;;;;67.00;24.50;;;;;;;-128.00;-1.00;-1.00;100247;1286;1012913;-30
2023/12/02 01:12:01;;;;;;;62.10;23.50;;;;;;;-128.00;-1.00;-1.00;100259;1284;1004025;-31
2023/12/02 01:14:26;;;;;;;56.10;22.50;;;;;;;-128.00;-1.00;-1.00;100393;1282;1003599;-31
2023/12/02 01:16:52;;;;;;;80.60;29.20;;;;;;;-128.00;-1.00;-1.00;100441;1284;1003802;-33
2023/12/02 01:19:18;;;;;;;;;;;;;;;-128.00;-1.00;-1.00;100399;1282;1057026;-32
2023/12/02 01:21:44;;;;;;;62.00;25.00;;;;;;;-128.00;-1.00;-1.00;100243;1287;1004041;-31
2023/12/02 01:24:10;;;;;;;66.40;25.10;;;;;;;-128.00;-1.00;-1.00;100330;1286;1003509;-31
2023/12/02 01:26:36;;;;;;;61.30;23.30;;;;;;;-128.00;-1.00;-1.00;100102;1282;1059824;-31
2023/12/02 01:29:02;;;;;;;68.80;25.90;;;;;;;-128.00;-1.00;-1.00;100371;1282;1003115;-31
2023/12/02 01:31:28;;;;;;;;;;;;;;;-128.00;-1.00;-1.00;100278;1282;1004649;-33
2023/12/02 01:33:54;;;;;;;54.60;21.20;;;;;;;-128.00;-1.00;-1.00;100288;1282;1002975;-33
2023/12/02 01:36:21;;;;;;;63.30;23.70;;;;;;;-128.00;-1.00;-1.00;100372;1283;1046195;-31
2023/12/02 01:38:47;;;;;;;64.00;24.80;;;;;;;-128.00;-1.00;-1.00;100332;1282;1004118;-32
2023/12/02 01:41:13;;;;;;;61.50;24.20;;;;;;;-128.00;-1.00;-1.00;100336;1282;1005580;-32
2023/12/02 01:43:39;;;;;;;52.40;19.50;;;;;;;-128.00;-1.00;-1.00;100331;1285;1003335;-31
2023/12/02 01:46:05;;;;;;;59.20;24.20;;;;;;;-128.00;-1.00;-1.00;100392;1282;1038584;-34
2023/12/02 01:48:32;;;;;;;;;;;;;;;-128.00;-1.00;-1.00;100420;1281;1004085;-32
2023/12/02 01:50:58;;;;;;;62.20;22.10;;;;;;;-128.00;-1.00;-1.00;99603;1281;1003345;-34
2023/12/02 01:53:24;;;;;;;50.70;18.90;;;;;;;-128.00;-1.00;-1.00;98859;1282;1004463;-30
2023/12/02 02:35:02;;;;;;;45.90;18.30;;;;;;;-4.15;100.00;98374.87;103642;1285;613252;-32
2023/12/02 02:37:28;;;;;;;37.90;14.70;;;;;;;-4.03;100.00;98374.77;103795;1279;132978;-31
2023/12/02 02:39:54;;;;;;;39.40;15.80;;;;;;;-4.03;100.00;98366.52;103924;1279;59270;-33
2023/12/02 02:42:19;;;;;;;38.60;14.30;;;;;;;-4.04;100.00;98354.01;104117;1279;59371;-31
2023/12/02 02:44:45;;;;;;;35.40;15.10;;;;;;;-4.02;100.00;98342.35;103961;1279;59833;-32
2023/12/02 02:47:11;;;;;;;;;;;;;;;-4.04;100.00;98349.66;103918;1285;59356;-32
2023/12/02 02:49:37;;;;;;;39.10;13.90;;;;;;;-4.02;100.00;98351.05;103818;1283;59159;-33
2023/12/02 02:52:03;;;;;;;48.20;17.50;;;;;;;-4.03;100.00;98342.05;104004;1279;59260;-33
2023/12/02 02:54:29;;;;;;;;;;;;;;;-4.01;100.00;98345.23;103759;1279;59310;-33
2023/12/02 02:56:55;;;;;;;43.20;16.50;;;;;;;-3.98;100.00;98341.25;103891;1279;70756;-34
2023/12/02 02:59:20;;;;;;;48.60;18.90;;;;;;;-3.90;100.00;98341.44;103941;1279;59763;-30
2023/12/02 03:01:48;;;;;;;;;;;;;;;-3.91;100.00;98337.66;103879;1279;59750;-33
2023/12/02 03:04:14;;;;;;;53.90;20.90;;;;;;;-3.91;100.00;98337.74;104040;1279;59640;-30
2023/12/02 03:06:40;;;;;;;50.80;19.70;;;;;;;-3.88;100.00;98339.02;103858;1279;59752;-31
2023/12/02 03:09:06;;;;;;;59.30;20.90;;;;;;;-3.80;100.00;98339.36;104135;1279;59761;-32
2023/12/02 03:11:32;;;;;;;60.50;22.60;;;;;;;-3.82;100.00;98337.98;103971;1279;59692;-30
2023/12/02 03:13:58;;;;;;;70.00;25.10;;;;;;;-3.83;100.00;98337.36;103953;1279;60165;-30
2023/12/02 03:16:25;;;;;;;71.80;24.10;;;;;;;-3.82;100.00;98322.40;103832;1279;59723;-32
2023/12/02 03:18:51;;;;;;;71.00;25.20;;;;;;;-3.78;100.00;98309.14;103906;1284;59735;-34
2023/12/02 03:21:16;;;;;;;69.40;24.90;;;;;;;-3.78;100.00;98303.85;103893;1284;59743;-30
2023/12/02 03:23:42;;;;;;;75.10;25.40;;;;;;;-3.78;100.00;98308.27;103905;1280;59695;-35
2023/12/02 03:26:08;;;;;;;81.60;29.00;;;;;;;-3.78;100.00;98308.21;103752;1285;59734;-35
2023/12/02 03:28:34;;;;;;;77.00;26.60;;;;;;;-3.72;100.00;98315.45;103957;1281;59746;-31
2023/12/02 03:31:01;;;;;;;78.00;27.00;;;;;;;-3.77;100.00;98318.09;103880;1283;59786;-31
2023/12/02 03:33:26;;;;;;;69.80;25.40;;;;;;;-3.78;100.00;98319.45;103875;1279;59618;-33
2023/12/02 03:35:52;;;;;;;83.40;27.90;;;;;;;-3.81;100.00;98304.84;104061;1279;59748;-34
2023/12/02 03:38:18;;;;;;;81.30;28.10;;;;;;;-3.82;100.00;98296.91;103987;1279;59849;-31
2023/12/02 03:40:44;;;;;;;79.50;29.10;;;;;;;-3.79;100.00;98295.19;103950;1283;69082;-31
2023/12/02 03:43:10;;;;;;;69.30;25.90;;;;;;;-3.80;100.00;98290.73;103832;1284;59657;-31
2023/12/02 03:45:35;;;;;;;;;;;;;;;-3.81;100.00;98290.45;103881;1280;59749;-31
2023/12/02 03:48:01;;;;;;;74.40;26.50;;;;;;;-3.84;100.00;98291.47;103977;1280;59672;-33
2023/12/02 03:50:28;;;;;;;84.00;26.80;;;;;;;-3.90;100.00;98291.64;104070;1279;59753;-32
2023/12/02 03:52:53;;;;;;;69.00;25.10;;;;;;;-3.92;100.00;98303.34;103905;1280;60190;-32
2023/12/02 03:55:19;;;;;;;84.20;29.90;;;;;;;-3.92;100.00;98309.98;103897;1279;59720;-34
2023/12/02 03:57:45;;;;;;;89.10;31.40;;;;;;;-3.93;100.00;98305.57;103988;1282;59765;-32
2023/12/02 04:00:11;;;;;;;82.70;27.30;;;;;;;-3.98;100.00;98302.98;103847;1279;59753;-30
2023/12/02 04:02:38;;;;;;;;;;;;;;;-4.00;100.00;98295.08;103785;1280;59775;-37
2023/12/02 04:05:08;;;;;;;76.70;27.80;;;;;;;-3.98;100.00;98291.64;102669;1285;1002863;-30
2023/12/02 04:07:34;;;;;;;74.30;28.80;;;;;;;-3.96;100.00;98296.34;102027;1279;1002441;-31
2023/12/02 04:10:02;;;;;;;76.30;27.50;;;;;;;-3.98;100.00;98291.77;102192;1285;1002950;-31
2023/12/02 04:12:29;;;;;;;81.20;29.20;;;;;;;-4.00;100.00;98299.66;94573;1279;1070758;-31
2023/12/02 04:14:55;;;;;;;70.30;26.00;;;;;;;-4.04;100.00;98307.35;99823;1283;1004019;-31
2023/12/02 04:17:21;;;;;;;75.30;27.40;;;;;;;-4.03;100.00;98314.25;104070;1283;59995;-33
2023/12/02 04:19:51;;;;;;;79.50;28.50;;;;;;;-4.04;100.00;98316.98;101957;1279;1003890;-33
2023/12/02 04:22:18;;;;;;;64.00;25.20;;;;;;;-4.00;100.00;98312.93;96901;1279;1003073;-31
2023/12/02 04:24:45;;;;;;;70.90;23.50;;;;;;;-4.02;100.00;98305.78;104104;1284;59676;-33
2023/12/02 04:27:11;;;;;;;76.80;28.50;;;;;;;-4.06;100.00;98298.39;103917;1285;59635;-33
2023/12/02 04:29:40;;;;;;;;;;;;;;;-4.06;100.00;98302.96;104131;1280;59775;-31
2023/12/02 04:32:06;;;;;;;68.50;24.90;;;;;;;-4.07;100.00;98295.88;103734;1280;59725;-32
2023/12/02 04:34:32;;;;;;;;;;;;;;;-4.08;100.00;98283.04;101863;1282;1002888;-33
2023/12/02 04:36:58;;;;;;;65.50;24.60;;;;;;;-4.09;100.00;98287.17;104025;1285;59694;-33
2023/12/02 04:39:25;;;;;;;73.10;25.10;;;;;;;-4.15;100.00;98293.24;103230;1279;1003025;-31
2023/12/02 04:41:51;;;;;;;63.90;23.60;;;;;;;-4.18;100.00;98295.08;103292;1285;1002311;-32
2023/12/02 04:44:17;;;;;;;60.30;22.90;;;;;;;-4.16;100.00;98295.80;104163;1283;59740;-33
2023/12/02 04:46:43;;;;;;;65.10;26.00;;;;;;;-4.15;100.00;98298.35;103434;1284;1002955;-33
2023/12/02 04:49:10;;;;;;;66.70;27.20;;;;;;;-4.14;100.00;98300.31;103827;1288;60075;-33
2023/12/02 04:51:36;;;;;;;67.10;25.80;;;;;;;-4.14;100.00;98296.84;104103;1285;59993;-33
2023/12/02 04:54:02;;;;;;;65.20;23.60;;;;;;;-4.17;100.00;98298.14;104171;1285;59985;-33
2023/12/02 04:56:28;;;;;;;54.20;21.50;;;;;;;-103.24;19.20;19659.83;101152;1282;1002778;-31
2023/12/02 04:58:54;;;;;;;60.60;22.30;;;;;;;-128.00;-1.00;-1.00;100652;1280;1004703;-32
2023/12/02 05:01:19;;;;;;;72.20;26.30;;;;;;;-128.00;-1.00;-1.00;100619;1283;1002927;-30
2023/12/02 05:03:45;;;;;;;74.30;26.10;;;;;;;-128.00;-1.00;-1.00;100566;1281;1005208;-33
2023/12/02 05:06:15;;;;;;;72.70;27.70;;;;;;;-128.00;-1.00;-1.00;100540;1282;1057939;-31
2023/12/02 05:08:41;;;;;;;65.80;25.50;;;;;;;-128.00;-1.00;-1.00;100566;1281;1013294;-37
2023/12/02 05:11:07;;;;;;;66.70;24.00;;;;;;;-128.00;-1.00;-1.00;100543;1279;1002937;-33
2023/12/02 05:13:33;;;;;;;59.60;22.30;;;;;;;-128.00;-1.00;-1.00;100645;1281;1003181;-35
2023/12/02 05:15:59;;;;;;;69.60;24.90;;;;;;;-128.00;-1.00;-1.00;100601;1285;1003144;-34
2023/12/02 05:18:25;;;;;;;69.50;25.30;;;;;;;-128.00;-1.00;-1.00;100562;1285;1003352;-33
2023/12/02 05:20:51;;;;;;;67.80;25.30;;;;;;;-128.00;-1.00;-1.00;100602;1282;1013609;-34
2023/12/02 05:23:16;;;;;;;63.10;22.30;;;;;;;-128.00;-1.00;-1.00;100528;1280;1002772;-33
2023/12/02 05:25:42;;;;;;;59.80;23.90;;;;;;;-128.00;-1.00;-1.00;100667;1280;1003014;-33
2023/12/02 05:28:08;;;;;;;64.30;25.10;;;;;;;-128.00;-1.00;-1.00;100503;1280;1055688;-34
2023/12/02 05:30:34;;;;;;;69.20;24.70;;;;;;;-128.00;-1.00;-1.00;100458;1284;1003009;-32
2023/12/02 05:33:00;;;;;;;61.40;21.70;;;;;;;-128.00;-1.00;-1.00;100559;1285;1002663;-32
2023/12/02 05:35:26;;;;;;;;;;;;;;;-128.00;-1.00;-1.00;100640;1283;1003861;-30
2023/12/02 05:37:52;;;;;;;56.60;20.80;;;;;;;-128.00;-1.00;-1.00;100592;1281;1003781;-33
2023/12/02 05:40:18;;;;;;;66.90;24.50;;;;;;;-128.00;-1.00;-1.00;100595;1281;1004214;-30
2023/12/02 05:42:44;;;;;;;65.60;25.90;;;;;;;-128.00;-1.00;-1.00;100528;1282;1003777;-32
2023/12/02 05:45:10;;;;;;;72.80;26.00;;;;;;;-128.00;-1.00;-1.00;100208;1282;1003311;-33
2023/12/02 05:47:36;;;;;;;65.00;25.50;;;;;;;-128.00;-1.00;-1.00;100586;1285;1003455;-30
2023/12/02 05:50:02;;;;;;;70.00;24.50;;;;;;;-128.00;-1.00;-1.00;100581;1280;1058847;-31
2023/12/02 05:52:29;;;;;;;84.80;28.80;;;;;;;-128.00;-1.00;-1.00;100569;1282;1003534;-32
2023/12/02 05:54:55;;;;;;;72.50;26.10;;;;;;;-128.00;-1.00;-1.00;100671;1285;1003231;-33
2023/12/02 05:57:21;;;;;;;70.10;25.00;;;;;;;-128.00;-1.00;-1.00;100566;1282;1003345;-31
2023/12/02 05:59:47;;;;;;;81.60;29.80;;;;;;;-128.00;-1.00;-1.00;100492;1282;1003028;-32
2023/12/02 06:02:13;;;;;;;65.90;26.80;;;;;;;-128.00;-1.00;-1.00;100550;1282;1003207;-34
2023/12/02 06:04:38;;;;;;;71.70;27.80;;;;;;;-128.00;-1.00;-1.00;100505;1282;1055376;-33
2023/12/02 06:07:04;;;;;;;74.00;28.80;;;;;;;-128.00;-1.00;-1.00;100478;1283;1003007;-33
2023/12/02 06:09:30;;;;;;;79.00;27.50;;;;;;;-128.00;-1.00;-1.00;100698;1282;1003094;-33
2023/12/02 06:11:56;;;;;;;104.70;37.20;;;;;;;-128.00;-1.00;-1.00;100520;1282;1046334;-31
2023/12/02 06:14:22;;;;;;;109.00;39.00;;;;;;;-128.00;-1.00;-1.00;100522;1285;1003105;-31
2023/12/02 06:16:48;;;;;;;85.40;31.70;;;;;;;-128.00;-1.00;-1.00;100524;1280;1003146;-33
2023/12/02 06:19:14;;;;;;;;;;;;;;;-128.00;-1.00;-1.00;100552;1280;1003723;-33
2023/12/02 06:21:40;;;;;;;98.00;35.30;;;;;;;-128.00;-1.00;-1.00;100518;1283;1037899;-32
2023/12/02 06:24:06;;;;;;;110.60;36.20;;;;;;;-128.00;-1.00;-1.00;100468;1282;1003782;-31
2023/12/02 06:26:32;;;;;;;;;;;;;;;-128.00;-1.00;-1.00;100487;1282;1002250;-32
2023/12/02 06:28:58;;;;;;;82.10;30.10;;;;;;;-128.00;-1.00;-1.00;100661;1283;1003454;-31
2023/12/02 06:31:23;;;;;;;;;;;;;;;-128.00;-1.00;-1.00;99756;1285;1013414;-33
2023/12/02 06:33:49;;;;;;;103.40;37.60;;;;;;;-128.00;-1.00;-1.00;100382;1284;1004651;-30
2023/12/02 06:36:15;;;;;;;98.70;36.20;;;;;;;-128.00;-1.00;-1.00;100340;1282;1058172;-32
2023/12/02 06:38:41;;;;;;;101.20;36.10;;;;;;;-128.00;-1.00;-1.00;100608;1282;1003897;-33
2023/12/02 06:41:07;;;;;;;111.30;38.30;;;;;;;-128.00;-1.00;-1.00;100677;1282;1002941;-30
2023/12/02 06:43:34;;;;;;;136.20;42.90;;;;;;;-128.00;-1.00;-1.00;100445;1282;1004050;-33
2023/12/02 06:46:00;;;;;;;124.50;43.20;;;;;;;-128.00;-1.00;-1.00;100539;1284;1003572;-31
2023/12/02 06:48:26;;;;;;;119.30;41.90;;;;;;;-128.00;-1.00;-1.00;100567;1280;1003865;-31
2023/12/02 06:50:52;;;;;;;104.40;37.90;;;;;;;-128.00;-1.00;-1.00;100529;1282;1054491;-32
2023/12/02 06:53:17;;;;;;;96.00;33.20;;;;;;;-128.00;-1.00;-1.00;100540;1284;1004007;-32
2023/12/02 06:55:43;;;;;;;106.70;37.50;;;;;;;-128.00;-1.00;-1.00;100516;1280;1003026;-32
2023/12/02 06:58:09;;;;;;;100.90;37.10;;;;;;;-128.00;-1.00;-1.00;100671;1283;1044845;-31
2023/12/02 07:00:35;;;;;;;105.10;38.20;;;;;;;-128.00;-1.00;-1.00;100515;1285;1002488;-30
2023/12/02 07:03:01;;;;;;;105.60;38.20;;;;;;;-128.00;-1.00;-1.00;100529;1280;1003338;-35
2023/12/02 07:05:27;;;;;;;100.90;34.70;;;;;;;-128.00;-1.00;-1.00;100480;1280;1012131;-30
2023/12/02 07:07:52;;;;;;;116.70;41.40;;;;;;;-128.00;-1.00;-1.00;100296;1282;1003529;-35
2023/12/02 07:10:18;;;;;;;196.00;67.90;;;;;;;-128.00;-1.00;-1.00;100549;1280;1002982;-32
2023/12/02 07:12:45;;;;;;;207.50;72.00;;;;;;;-128.00;-1.00;-1.00;100442;1279;1056576;-34
2023/12/02 07:15:11;;;;;;;158.30;55.00;;;;;;;-128.00;-1.00;-1.00;100455;1279;1003282;-33
2023/12/02 07:17:37;;;;;;;136.70;44.40;;;;;;;-128.00;-1.00;-1.00;100663;1279;1004227;-32
2023/12/02 07:20:03;;;;;;;142.20;52.00;;;;;;;-128.00;-1.00;-1.00;100625;1279;1003918;-32
2023/12/02 07:22:28;;;;;;;;;;;;;;;-128.00;-1.00;-1.00;100505;1282;1060697;-33
2023/12/02 07:24:54;;;;;;;181.90;59.10;;;;;;;-128.00;-1.00;-1.00;100629;1283;1003618;-32
2023/12/02 07:27:20;;;;;;;133.40;45.10;;;;;;;-128.00;-1.00;-1.00;100687;1282;1003432;-33
2023/12/02 07:29:45;;;;;;;134.80;44.20;;;;;;;-128.00;-1.00;-1.00;100492;1283;1039090;-31
2023/12/02 07:32:11;;;;;;;139.90;50.40;;;;;;;-128.00;-1.00;-1.00;100575;1279;1003528;-31
2023/12/02 07:34:37;;;;;;;150.90;47.40;;;;;;;-128.00;-1.00;-1.00;100474;1282;1003114;-33
2023/12/02 07:37:03;;;;;;;121.70;43.00;;;;;;;-128.00;-1.00;-1.00;100462;1282;1058196;-31
2023/12/02 07:39:29;;;;;;;;;;;;;;;-128.00;-1.00;-1.00;100582;1285;1003835;-34
2023/12/02 07:41:55;;;;;;;118.30;41.20;;;;;;;-128.00;-1.00;-1.00;100573;1279;1003326;-32
2023/12/02 07:44:21;;;;;;;111.90;39.60;;;;;;;-128.00;-1.00;-1.00;100602;1283;1002468;-32
2023/12/02 07:46:46;;;;;;;140.00;48.00;;;;;;;-128.00;-1.00;-1.00;100504;1279;1055206;-31
2023/12/02 07:49:12;;;;;;;116.60;39.50;;;;;;;-128.00;-1.00;-1.00;100438;1279;1004512;-33
2023/12/02 07:51:38;;;;;;;131.10;47.20;;;;;;;-128.00;-1.00;-1.00;100444;1280;1003571;-33
2023/12/02 07:54:04;;;;;;;123.80;44.90;;;;;;;-128.00;-1.00;-1.00;100403;1279;1049394;-31
2023/12/02 07:56:29;;;;;;;138.80;49.50;;;;;;;-128.00;-1.00;-1.00;100473;1279;1003324;-31
2023/12/02 07:58:55;;;;;;;125.10;44.00;;;;;;;-128.00;-1.00;-1.00;100469;1285;1003304;-32
2023/12/02 08:01:21;;;;;;;123.40;42.10;;;;;;;-128.00;-1.00;-1.00;100226;1282;1013737;-33
2023/12/02 08:03:47;;;;;;;;;;;;;;;-128.00;-1.00;-1.00;100627;1279;1003764;-32
2023/12/02 08:06:13;;;;;;;121.20;44.10;;;;;;;-128.00;-1.00;-1.00;100549;1280;1002927;-33
2023/12/02 08:08:39;;;;;;;106.30;39.40;;;;;;;-128.00;-1.00;-1.00;100539;1283;1003361;-34
2023/12/02 08:11:05;;;;;;;106.50;41.50;;;;;;;-128.00;-1.00;-1.00;100474;1279;1058980;-33
2023/12/02 08:13:31;;;;;;;126.30;45.30;;;;;;;-128.00;-1.00;-1.00;100528;1279;1003513;-31
2023/12/02 08:15:57;;;;;;;;;;;;;;;-128.00;-1.00;-1.00;100532;1285;1003851;-32
2023/12/02 08:18:23;;;;;;;123.00;42.80;;;;;;;-128.00;-1.00;-1.00;100647;1279;1003161;-33
2023/12/02 08:20:49;;;;;;;119.40;42.90;;;;;;;-128.00;-1.00;-1.00;100450;1282;1056364;-31
2023/12/02 08:23:15;;;;;;;116.00;44.10;;;;;;;-128.00;-1.00;-1.00;100393;1283;1004438;-30
2023/12/02 08:25:41;;;;;;;112.10;42.90;;;;;;;-128.00;-1.00;-1.00;100511;1285;1003494;-31
2023/12/02 08:28:07;;;;;;;107.90;43.00;;;;;;;-128.00;-1.00;-1.00;100599;1280;1005088;-34
2023/12/02 08:30:33;;;;;;;130.40;46.20;;;;;;;-128.00;-1.00;-1.00;100459;1282;1062939;-31
2023/12/02 08:32:58;;;;;;;147.30;50.20;;;;;;;-128.00;-1.00;-1.00;100476;1284;1003476;-30
2023/12/02 08:35:24;;;;;;;154.00;54.80;;;;;;;-128.00;-1.00;-1.00;100483;1282;1003615;-34
2023/12/02 08:37:51;;;;;;;129.20;49.00;;;;;;;-128.00;-1.00;-1.00;100308;1285;1038452;-31
2023/12/02 08:40:17;;;;;;;140.20;53.10;;;;;;;-128.00;-1.00;-1.00;100616;1280;1003721;-33
2023/12/02 08:42:42;;;;;;;136.70;52.40;;;;;;;-128.00;-1.00;-1.00;100457;1280;1002518;-33
2023/12/02 08:45:08;;;;;;;142.70;49.00;;;;;;;-128.00;-1.00;-1.00;100487;1282;1003444;-37
2023/12/02 08:47:34;;;;;;;142.00;51.40;;;;;;;-128.00;-1.00;-1.00;100584;1283;1003576;-34
2023/12/02 08:50:01;;;;;;;131.60;49.70;;;;;;;-128.00;-1.00;-1.00;100446;1282;1039012;-34
2023/12/02 08:52:27;;;;;;;152.50;52.60;;;;;;;-128.00;-1.00;-1.00;100550;1282;1003684;-31
2023/12/02 08:54:52;;;;;;;137.80;49.50;;;;;;;-128.00;-1.00;-1.00;100610;1285;1003907;-32
2023/12/02 08:57:18;;;;;;;144.30;54.90;;;;;;;-128.00;-1.00;-1.00;100468;1284;1004225;-33
2023/12/02 08:59:44;;;;;;;148.90;52.70;;;;;;;-128.00;-1.00;-1.00;100525;1282;1012686;-33
2023/12/02 09:02:10;;;;;;;133.90;49.40;;;;;;;-128.00;-1.00;-1.00;100457;1282;1003336;-33
2023/12/02 09:04:36;;;;;;;121.50;45.70;;;;;;;-128.00;-1.00;-1.00;100502;1285;1003842;-33
2023/12/02 09:07:02;;;;;;;125.00;48.40;;;;;;;-128.00;-1.00;-1.00;100537;1280;1055276;-31
2023/12/02 09:09:28;;;;;;;142.00;53.30;;;;;;;-128.00;-1.00;-1.00;100495;1283;1004260;-33
2023/12/02 09:11:54;;;;;;;136.90;50.20;;;;;;;-128.00;-1.00;-1.00;100576;1283;1004046;-32
2023/12/02 09:14:20;;;;;;;;;;;;;;;-128.00;-1.00;-1.00;100506;1284;1003388;-33
2023/12/02 09:16:46;;;;;;;121.80;45.80;;;;;;;-128.00;-1.00;-1.00;100329;1282;1002863;-33
2023/12/02 09:19:36;;;;;;;119.60;46.30;;;;;;;-128.00;-1.00;-1.00;100628;1281;1056142;-34
2023/12/02 09:22:02;;;;;;;134.70;50.40;;;;;;;-128.00;-1.00;-1.00;100490;1285;1059018;-34
2023/12/02 09:24:40;;;;;;;146.60;55.20;;;;;;;-128.00;-1.00;-1.00;100287;1283;1003044;-32
2023/12/02 09:27:06;;;;;;;152.50;58.90;;;;;;;-128.00;-1.00;-1.00;100286;1288;1039301;-30
2023/12/02 09:29:41;;;;;;;126.00;49.50;;;;;;;-128.00;-1.00;-1.00;100536;1283;1003069;-33
2023/12/02 09:32:34;;;;;;;141.70;51.80;;;;;;;-128.00;-1.00;-1.00;100499;1284;1060055;-32
2023/12/02 09:35:00;;;;;;;131.60;50.80;;;;;;;-128.00;-1.00;-1.00;100238;1282;1055959;-35
2023/12/02 09:37:54;;;;;;;152.30;58.40;;;;;;;-128.00;-1.00;-1.00;100568;1284;1003401;-32
2023/12/02 09:40:51;;;;;;;140.60;53.00;;;;;;;-128.00;-1.00;-1.00;100504;1282;1012357;-32
2023/12/02 09:43:27;;;;;;;127.50;48.40;;;;;;;-128.00;-1.00;-1.00;100312;1286;1039002;-34
2023/12/02 09:46:16;;;;;;;148.60;57.80;;;;;;;-128.00;-1.00;-1.00;100507;1285;1045625;-33
2023/12/02 09:49:06;;;;;;;133.20;52.40;;;;;;;-128.00;-1.00;-1.00;100590;1280;1059996;-34
2023/12/02 09:52:04;;;;;;;138.30;53.70;;;;;;;-128.00;-1.00;-1.00;100536;1280;1056382;-31
2023/12/02 09:54:42;;;;;;;120.20;48.70;;;;;;;-128.00;-1.00;-1.00;100465;1285;1059659;-34
2023/12/02 09:57:14;;;;;;;128.40;48.60;;;;;;;-128.00;-1.00;-1.00;100432;1281;1012358;-35
2023/12/02 09:59:50;;;;;;;120.70;45.90;;;;;;;-128.00;-1.00;-1.00;100436;1283;1039128;-30
2023/12/02 10:02:47;;;;;;;129.40;49.40;;;;;;;-128.00;-1.00;-1.00;100445;1280;1046345;-30
2023/12/02 10:05:13;;;;;;;;;;;;;;;-128.00;-1.00;-1.00;100603;1281;1060632;-32
2023/12/02 10:08:03;;;;;;;128.30;49.00;;;;;;;-128.00;-1.00;-1.00;100543;1280;1003486;-33
2023/12/02 10:10:37;;;;;;;124.30;48.00;;;;;;;-128.00;-1.00;-1.00;100403;1285;1058112;-34
2023/12/02 10:13:19;;;;;;;128.70;48.60;;;;;;;-128.00;-1.00;-1.00;100467;1280;1012607;-34
2023/12/02 10:15:48;;;;;;;127.90;50.30;;;;;;;-128.00;-1.00;-1.00;100525;1285;1038064;-33
2023/12/02 10:18:17;;;;;;;129.10;52.40;;;;;;;-128.00;-1.00;-1.00;100518;1285;1002501;-36
2023/12/02 10:20:43;;;;;;;133.10;51.10;;;;;;;-128.00;-1.00;-1.00;100539;1285;1059339;-30
2023/12/02 10:23:21;;;;;;;;;;;;;;;-128.00;-1.00;-1.00;100587;1282;1003865;-33
2023/12/02 10:25:58;;;;;;;;;;;;;;;-128.00;-1.00;-1.00;100447;1284;1058800;-33
2023/12/02 10:28:32;;;;;;;120.00;45.30;;;;;;;-128.00;-1.00;-1.00;100665;1281;1012094;-33
2023/12/02 10:30:59;;;;;;;116.80;44.60;;;;;;;-128.00;-1.00;-1.00;100483;1280;1038792;-31
2023/12/02 10:33:38;;;;;;;122.30;47.70;;;;;;;-128.00;-1.00;-1.00;100461;1285;1002505;-35
2023/12/02 10:36:07;;;;;;;134.90;51.00;;;;;;;-128.00;-1.00;-1.00;100514;1285;1059465;-33
2023/12/02 10:38:57;;;;;;;129.30;52.10;;;;;;;-128.00;-1.00;-1.00;100596;1280;1056521;-35
2023/12/02 10:41:27;;;;;;;126.70;48.30;;;;;;;-128.00;-1.00;-1.00;100465;1282;1059042;-33
2023/12/02 10:43:55;;;;;;;124.90;48.10;;;;;;;-128.00;-1.00;-1.00;100538;1280;1012867;-35
2023/12/02 10:46:21;;;;;;;118.40;45.70;;;;;;;-128.00;-1.00;-1.00;100536;1283;1004859;-32
2023/12/02 10:48:47;;;;;;;114.10;44.20;;;;;;;-128.00;-1.00;-1.00;100482;1283;1004347;-31
2023/12/02 10:51:13;;;;;;;113.30;43.50;;;;;;;-128.00;-1.00;-1.00;100544;1282;1002941;-31
2023/12/02 10:53:39;;;;;;;107.10;42.70;;;;;;;-128.00;-1.00;-1.00;100517;1280;1004424;-34
2023/12/02 10:56:10;;;;;;;103.90;41.40;;;;;;;-128.00;-1.00;-1.00;100580;1284;1012484;-30
2023/12/02 10:58:38;;;;;;;126.10;50.70;;;;;;;-128.00;-1.00;-1.00;100471;1284;1038586;-34
2023/12/02 11:01:06;;;;;;;128.20;46.60;;;;;;;-128.00;-1.00;-1.00;100509;1285;1003864;-29
2023/12/02 11:03:39;;;;;;;133.50;47.40;;;;;;;-128.00;-1.00;-1.00;100469;1285;1002803;-30
2023/12/02 11:06:05;;;;;;;137.50;51.10;;;;;;;-128.00;-1.00;-1.00;100591;1283;1056189;-35
2023/12/02 11:08:50;;;;;;;112.90;43.40;;;;;;;-128.00;-1.00;-1.00;100288;1283;1004089;-31
2023/12/02 11:11:27;;;;;;;121.70;45.70;;;;;;;-128.00;-1.00;-1.00;100575;1281;1013576;-34
2023/12/02 11:13:53;;;;;;;122.30;46.60;;;;;;;-128.00;-1.00;-1.00;100316;1285;1038640;-32
2023/12/02 11:16:22;;;;;;;118.60;46.80;;;;;;;-128.00;-1.00;-1.00;100279;1285;1003435;-33
2023/12/02 11:19:15;;;;;;;123.70;47.00;;;;;;;-128.00;-1.00;-1.00;100618;1280;1061052;-38
2023/12/02 11:22:12;;;;;;;127.30;49.00;;;;;;;-128.00;-1.00;-1.00;100588;1280;1054852;-33
2023/12/02 11:24:58;;;;;;;118.40;44.70;;;;;;;-128.00;-1.00;-1.00;100560;1282;1059003;-36
2023/12/02 11:27:38;;;;;;;106.10;43.60;;;;;;;-128.00;-1.00;-1.00;100454;1280;1012761;-34
2023/12/02 11:30:24;;;;;;;116.60;45.30;;;;;;;-128.00;-1.00;-1.00;100483;1285;1039221;-36
2023/12/02 11:33:16;;;;;;;124.70;50.70;;;;;;;-128.00;-1.00;-1.00;100452;1285;1045855;-34
2023/12/02 11:36:13;;;;;;;108.90;42.00;;;;;;;-128.00;-1.00;-1.00;100481;1283;1060111;-34
2023/12/02 11:38:48;;;;;;;120.90;49.10;;;;;;;-128.00;-1.00;-1.00;100369;1286;1056224;-36
2023/12/02 11:41:31;;;;;;;120.60;47.50;;;;;;;-128.00;-1.00;-1.00;100344;1280;1057846;-33
2023/12/02 11:44:04;;;;;;;117.20;43.70;;;;;;;-128.00;-1.00;-1.00;100452;1285;1013165;-34
2023/12/02 11:46:32;;;;;;;129.30;47.30;;;;;;;-128.00;-1.00;-1.00;100513;1285;1038259;-39
2023/12/02 11:49:15;;;;;;;122.30;46.40;;;;;;;-128.00;-1.00;-1.00;100413;1280;1045863;-33